SWA985 KDEN-KBUR
Flight info
| Callsign | SWA985 |
|---|---|
| Flight time | 2h 10m |
| Altitude | 40000 |
| Route | BAYLR6 TEHRU ROOLL Q94 WELUM JANNY5 |
| Aircraft | B737/M-SADE2E3GIJ4RWZ/LB1D1 |
Departure
| Time | 2026-05-03 20:23 |
|---|---|
| Airport | Denver International Airport (KDEN) |
Arrival
| Time | 2026-05-03 22:33 |
|---|---|
| Airport | Hollywood Burbank/Bob Hope Airport (KBUR) |
| Time | Latitude | Longitude | Altitude | Speed | Heading |
|---|---|---|---|---|---|
| 2026-05-03 20:15 | 39.86416 | -104.67144 | 5361 ft | 0 kts | 270° |
| 2026-05-03 20:16 | 39.86416 | -104.67145 | 5361 ft | 1 kts | 270° |
| 2026-05-03 20:16 | 39.86416 | -104.67185 | 5362 ft | 7 kts | 270° |
| 2026-05-03 20:17 | 39.86416 | -104.67277 | 5363 ft | 13 kts | 270° |
| 2026-05-03 20:17 | 39.86417 | -104.67398 | 5365 ft | 13 kts | 270° |
| 2026-05-03 20:17 | 39.86418 | -104.67520 | 5365 ft | 14 kts | 270° |
| 2026-05-03 20:17 | 39.86419 | -104.67654 | 5365 ft | 15 kts | 270° |
| 2026-05-03 20:18 | 39.86421 | -104.67797 | 5365 ft | 16 kts | 272° |
| 2026-05-03 20:18 | 39.86422 | -104.67937 | 5365 ft | 16 kts | 268° |
| 2026-05-03 20:18 | 39.86412 | -104.68082 | 5365 ft | 17 kts | 262° |
| 2026-05-03 20:18 | 39.86398 | -104.68234 | 5365 ft | 17 kts | 277° |
| 2026-05-03 20:19 | 39.86425 | -104.68379 | 5365 ft | 16 kts | 269° |
| 2026-05-03 20:19 | 39.86430 | -104.68523 | 5365 ft | 14 kts | 270° |
| 2026-05-03 20:19 | 39.86429 | -104.68565 | 5365 ft | 0 kts | 267° |
| 2026-05-03 20:20 | 39.86429 | -104.68566 | 5365 ft | 0 kts | 267° |
| 2026-05-03 20:21 | 39.86429 | -104.68574 | 5365 ft | 4 kts | 269° |
| 2026-05-03 20:21 | 39.86431 | -104.68638 | 5366 ft | 10 kts | 276° |
| 2026-05-03 20:21 | 39.86482 | -104.68715 | 5365 ft | 13 kts | 353° |
| 2026-05-03 20:21 | 39.86514 | -104.68716 | 5366 ft | 14 kts | 359° |
| 2026-05-03 20:22 | 39.86577 | -104.68715 | 5367 ft | 18 kts | 0° |
| 2026-05-03 20:22 | 39.86866 | -104.68712 | 5364 ft | 72 kts | 0° |
| 2026-05-03 20:22 | 39.87559 | -104.68706 | 5365 ft | 125 kts | 359° |
| 2026-05-03 20:22 | 39.88574 | -104.68706 | 5391 ft | 163 kts | 353° |
| 2026-05-03 20:23 | 39.89704 | -104.68687 | 6039 ft | 159 kts | 358° |
| 2026-05-03 20:23 | 39.90883 | -104.68642 | 6349 ft | 181 kts | 358° |
| 2026-05-03 20:23 | 39.92123 | -104.68617 | 7040 ft | 172 kts | 358° |
| 2026-05-03 20:23 | 39.93317 | -104.68826 | 7542 ft | 184 kts | 332° |
| 2026-05-03 20:24 | 39.94253 | -104.70057 | 7746 ft | 207 kts | 291° |
| 2026-05-03 20:24 | 39.94374 | -104.71982 | 8038 ft | 227 kts | 258° |
| 2026-05-03 20:24 | 39.93559 | -104.73874 | 8208 ft | 257 kts | 223° |
| 2026-05-03 20:24 | 39.91872 | -104.74874 | 8506 ft | 285 kts | 189° |
| 2026-05-03 20:25 | 39.89917 | -104.75401 | 9248 ft | 289 kts | 210° |
| 2026-05-03 20:25 | 39.88321 | -104.76915 | 9801 ft | 282 kts | 225° |
| 2026-05-03 20:25 | 39.86916 | -104.78714 | 9990 ft | 287 kts | 228° |
| 2026-05-03 20:25 | 39.85498 | -104.80605 | 9976 ft | 293 kts | 227° |
| 2026-05-03 20:26 | 39.84049 | -104.82472 | 9963 ft | 292 kts | 226° |
| 2026-05-03 20:26 | 39.82586 | -104.84292 | 9996 ft | 290 kts | 225° |
| 2026-05-03 20:26 | 39.81063 | -104.86147 | 10131 ft | 313 kts | 225° |
| 2026-05-03 20:26 | 39.79403 | -104.88157 | 10348 ft | 339 kts | 225° |
| 2026-05-03 20:27 | 39.77762 | -104.90495 | 10477 ft | 363 kts | 239° |
| 2026-05-03 20:27 | 39.76770 | -104.93548 | 10959 ft | 371 kts | 255° |
| 2026-05-03 20:27 | 39.76087 | -104.96787 | 11782 ft | 372 kts | 256° |
| 2026-05-03 20:27 | 39.75405 | -105.00042 | 12532 ft | 376 kts | 256° |
| 2026-05-03 20:28 | 39.74677 | -105.03338 | 13277 ft | 380 kts | 253° |
| 2026-05-03 20:28 | 39.73743 | -105.06518 | 14007 ft | 384 kts | 248° |
| 2026-05-03 20:28 | 39.72661 | -105.09715 | 14708 ft | 388 kts | 247° |
| 2026-05-03 20:28 | 39.71549 | -105.12924 | 15417 ft | 392 kts | 247° |
| 2026-05-03 20:29 | 39.70441 | -105.16171 | 16110 ft | 395 kts | 248° |
| 2026-05-03 20:29 | 39.69346 | -105.19452 | 16892 ft | 397 kts | 248° |
| 2026-05-03 20:29 | 39.68255 | -105.22766 | 17567 ft | 402 kts | 248° |
| 2026-05-03 20:29 | 39.67149 | -105.26132 | 18294 ft | 407 kts | 248° |
| 2026-05-03 20:30 | 39.66036 | -105.29521 | 18885 ft | 412 kts | 248° |
| 2026-05-03 20:30 | 39.64912 | -105.32938 | 19664 ft | 411 kts | 248° |
| 2026-05-03 20:30 | 39.63780 | -105.36365 | 20257 ft | 415 kts | 248° |
| 2026-05-03 20:30 | 39.62636 | -105.39831 | 20788 ft | 420 kts | 248° |
| 2026-05-03 20:31 | 39.61488 | -105.43311 | 21485 ft | 420 kts | 248° |
| 2026-05-03 20:31 | 39.60331 | -105.46808 | 22060 ft | 424 kts | 248° |
| 2026-05-03 20:31 | 39.59168 | -105.50327 | 22578 ft | 427 kts | 248° |
| 2026-05-03 20:31 | 39.57988 | -105.53877 | 23125 ft | 429 kts | 248° |
| 2026-05-03 20:32 | 39.56800 | -105.57439 | 23652 ft | 431 kts | 248° |
| 2026-05-03 20:32 | 39.55606 | -105.61016 | 24075 ft | 433 kts | 248° |
| 2026-05-03 20:32 | 39.54469 | -105.64637 | 24537 ft | 434 kts | 250° |
| 2026-05-03 20:32 | 39.53432 | -105.68315 | 24987 ft | 436 kts | 251° |
| 2026-05-03 20:33 | 39.52430 | -105.72031 | 25417 ft | 437 kts | 252° |
| 2026-05-03 20:33 | 39.51430 | -105.75763 | 25812 ft | 439 kts | 252° |
| 2026-05-03 20:33 | 39.50418 | -105.79505 | 26197 ft | 441 kts | 252° |
| 2026-05-03 20:33 | 39.49391 | -105.83255 | 26558 ft | 443 kts | 252° |
| 2026-05-03 20:34 | 39.48350 | -105.87020 | 26894 ft | 445 kts | 251° |
| 2026-05-03 20:34 | 39.47299 | -105.90796 | 27242 ft | 447 kts | 251° |
| 2026-05-03 20:34 | 39.46242 | -105.94583 | 27626 ft | 447 kts | 251° |
| 2026-05-03 20:34 | 39.45184 | -105.98363 | 28175 ft | 444 kts | 251° |
| 2026-05-03 20:35 | 39.44135 | -106.02102 | 28823 ft | 441 kts | 251° |
| 2026-05-03 20:35 | 39.43093 | -106.05819 | 29432 ft | 438 kts | 251° |
| 2026-05-03 20:35 | 39.42056 | -106.09515 | 29978 ft | 436 kts | 251° |
| 2026-05-03 20:35 | 39.41023 | -106.13195 | 30491 ft | 434 kts | 251° |
| 2026-05-03 20:36 | 39.39994 | -106.16849 | 31046 ft | 431 kts | 251° |
| 2026-05-03 20:36 | 39.38971 | -106.20478 | 31590 ft | 428 kts | 251° |
| 2026-05-03 20:36 | 39.37952 | -106.24090 | 32075 ft | 426 kts | 251° |
| 2026-05-03 20:36 | 39.36937 | -106.27687 | 32518 ft | 425 kts | 251° |
| 2026-05-03 20:37 | 39.35926 | -106.31266 | 32971 ft | 424 kts | 251° |
| 2026-05-03 20:37 | 39.34914 | -106.34844 | 33425 ft | 422 kts | 251° |
| 2026-05-03 20:37 | 39.33909 | -106.38393 | 33854 ft | 420 kts | 251° |
| 2026-05-03 20:37 | 39.32906 | -106.41932 | 34274 ft | 418 kts | 251° |
| 2026-05-03 20:38 | 39.31906 | -106.45452 | 34576 ft | 418 kts | 251° |
| 2026-05-03 20:38 | 39.30906 | -106.48972 | 34882 ft | 416 kts | 252° |
| 2026-05-03 20:38 | 39.29909 | -106.52472 | 35261 ft | 414 kts | 252° |
| 2026-05-03 20:38 | 39.28918 | -106.55950 | 35646 ft | 411 kts | 252° |
| 2026-05-03 20:39 | 39.27933 | -106.59401 | 35971 ft | 409 kts | 252° |
| 2026-05-03 20:39 | 39.26950 | -106.62844 | 36259 ft | 408 kts | 252° |
| 2026-05-03 20:39 | 39.25970 | -106.66271 | 36619 ft | 406 kts | 252° |
| 2026-05-03 20:39 | 39.24994 | -106.69678 | 36979 ft | 403 kts | 252° |
| 2026-05-03 20:40 | 39.23904 | -106.72960 | 37222 ft | 407 kts | 242° |
| 2026-05-03 20:40 | 39.22287 | -106.76045 | 37468 ft | 410 kts | 239° |
| 2026-05-03 20:40 | 39.20634 | -106.79033 | 37814 ft | 408 kts | 238° |
| 2026-05-03 20:40 | 39.18984 | -106.81998 | 38130 ft | 406 kts | 238° |
| 2026-05-03 20:41 | 39.17361 | -106.84922 | 38414 ft | 405 kts | 239° |
| 2026-05-03 20:41 | 39.15709 | -106.87912 | 38737 ft | 403 kts | 239° |
| 2026-05-03 20:41 | 39.14109 | -106.90822 | 38947 ft | 405 kts | 239° |
| 2026-05-03 20:41 | 39.12484 | -106.93788 | 39105 ft | 405 kts | 239° |
| 2026-05-03 20:42 | 39.10862 | -106.96747 | 39336 ft | 403 kts | 239° |
| 2026-05-03 20:42 | 39.09248 | -106.99697 | 39547 ft | 403 kts | 239° |
| 2026-05-03 20:42 | 39.07636 | -107.02640 | 39718 ft | 403 kts | 239° |
| 2026-05-03 20:42 | 39.06020 | -107.05590 | 39828 ft | 404 kts | 239° |
| 2026-05-03 20:43 | 39.04399 | -107.08544 | 39964 ft | 403 kts | 239° |
| 2026-05-03 20:43 | 39.01707 | -107.13440 | 40009 ft | 398 kts | 239° |
| 2026-05-03 20:44 | 38.98498 | -107.19273 | 39979 ft | 402 kts | 239° |
| 2026-05-03 20:44 | 38.95272 | -107.25129 | 39974 ft | 404 kts | 239° |
| 2026-05-03 20:45 | 38.92012 | -107.31031 | 39960 ft | 406 kts | 239° |
| 2026-05-03 20:45 | 38.88740 | -107.36942 | 39962 ft | 406 kts | 239° |
| 2026-05-03 20:46 | 38.85473 | -107.42834 | 39955 ft | 405 kts | 239° |
| 2026-05-03 20:46 | 38.82211 | -107.48707 | 39950 ft | 404 kts | 239° |
| 2026-05-03 20:47 | 38.78952 | -107.54568 | 39956 ft | 403 kts | 239° |
| 2026-05-03 20:47 | 38.75693 | -107.60415 | 39971 ft | 402 kts | 239° |
| 2026-05-03 20:48 | 38.72441 | -107.66237 | 39990 ft | 401 kts | 239° |
| 2026-05-03 20:48 | 38.69200 | -107.72032 | 40021 ft | 399 kts | 239° |
| 2026-05-03 20:49 | 38.65968 | -107.77798 | 40060 ft | 398 kts | 239° |
| 2026-05-03 20:49 | 38.62743 | -107.83544 | 40099 ft | 397 kts | 239° |
| 2026-05-03 20:50 | 38.59522 | -107.89273 | 40120 ft | 397 kts | 239° |
| 2026-05-03 20:50 | 38.56299 | -107.94995 | 40119 ft | 396 kts | 239° |
| 2026-05-03 20:51 | 38.53081 | -108.00697 | 40120 ft | 395 kts | 239° |
| 2026-05-03 20:51 | 38.49870 | -108.06376 | 40087 ft | 395 kts | 239° |
| 2026-05-03 20:52 | 38.46654 | -108.12055 | 40060 ft | 394 kts | 239° |
| 2026-05-03 20:52 | 38.43442 | -108.17718 | 40035 ft | 394 kts | 239° |
| 2026-05-03 20:53 | 38.40223 | -108.23383 | 40009 ft | 394 kts | 239° |
| 2026-05-03 20:53 | 38.37001 | -108.29045 | 39984 ft | 395 kts | 239° |
| 2026-05-03 20:54 | 38.33770 | -108.34710 | 39979 ft | 395 kts | 239° |
| 2026-05-03 20:54 | 38.28918 | -108.43201 | 39990 ft | 395 kts | 239° |
| 2026-05-03 20:55 | 38.25700 | -108.48819 | 39975 ft | 395 kts | 239° |
| 2026-05-03 20:55 | 38.22467 | -108.54453 | 39986 ft | 394 kts | 239° |
| 2026-05-03 20:56 | 38.19235 | -108.60077 | 39981 ft | 394 kts | 239° |
| 2026-05-03 20:56 | 38.16004 | -108.65690 | 39989 ft | 393 kts | 238° |
| 2026-05-03 20:57 | 38.12769 | -108.71300 | 39972 ft | 393 kts | 238° |
| 2026-05-03 20:57 | 38.09542 | -108.76885 | 39981 ft | 392 kts | 238° |
| 2026-05-03 20:58 | 38.06318 | -108.82458 | 39984 ft | 391 kts | 238° |
| 2026-05-03 20:58 | 38.03093 | -108.88021 | 39985 ft | 391 kts | 239° |
| 2026-05-03 20:59 | 37.99872 | -108.93570 | 40003 ft | 390 kts | 238° |
| 2026-05-03 20:59 | 37.96652 | -108.99107 | 39994 ft | 390 kts | 238° |
| 2026-05-03 21:00 | 37.93976 | -109.03700 | 39994 ft | 389 kts | 238° |
| 2026-05-03 21:00 | 37.90215 | -109.10146 | 39994 ft | 389 kts | 238° |
| 2026-05-03 21:01 | 37.87001 | -109.15645 | 39994 ft | 388 kts | 238° |
| 2026-05-03 21:01 | 37.83794 | -109.21122 | 40003 ft | 387 kts | 238° |
| 2026-05-03 21:02 | 37.80587 | -109.26590 | 40022 ft | 387 kts | 238° |
| 2026-05-03 21:02 | 37.77378 | -109.32052 | 40042 ft | 386 kts | 238° |
| 2026-05-03 21:03 | 37.74195 | -109.37462 | 40065 ft | 386 kts | 238° |
| 2026-05-03 21:03 | 37.70993 | -109.42897 | 40091 ft | 385 kts | 238° |
| 2026-05-03 21:04 | 37.67789 | -109.48324 | 40093 ft | 385 kts | 238° |
| 2026-05-03 21:04 | 37.64582 | -109.53747 | 40103 ft | 385 kts | 238° |
| 2026-05-03 21:05 | 37.61354 | -109.59199 | 40108 ft | 386 kts | 238° |
| 2026-05-03 21:05 | 37.58159 | -109.64584 | 40087 ft | 385 kts | 238° |
| 2026-05-03 21:06 | 37.54942 | -109.69998 | 40053 ft | 385 kts | 238° |
| 2026-05-03 21:06 | 37.51729 | -109.75396 | 40026 ft | 385 kts | 238° |
| 2026-05-03 21:07 | 37.48517 | -109.80784 | 39999 ft | 384 kts | 238° |
| 2026-05-03 21:07 | 37.45302 | -109.86168 | 39959 ft | 384 kts | 238° |
| 2026-05-03 21:08 | 37.42088 | -109.91542 | 39935 ft | 383 kts | 238° |
| 2026-05-03 21:08 | 37.38882 | -109.96894 | 39924 ft | 383 kts | 238° |
| 2026-05-03 21:09 | 37.35673 | -110.02243 | 39920 ft | 383 kts | 238° |
| 2026-05-03 21:09 | 37.32461 | -110.07587 | 39907 ft | 383 kts | 238° |
| 2026-05-03 21:10 | 37.29254 | -110.12915 | 39907 ft | 382 kts | 238° |
| 2026-05-03 21:10 | 37.26046 | -110.18238 | 39890 ft | 382 kts | 238° |
| 2026-05-03 21:11 | 37.22839 | -110.23548 | 39895 ft | 382 kts | 238° |
| 2026-05-03 21:11 | 37.19627 | -110.28859 | 39897 ft | 382 kts | 238° |
| 2026-05-03 21:12 | 37.16441 | -110.34118 | 39890 ft | 381 kts | 238° |
| 2026-05-03 21:12 | 37.13232 | -110.39406 | 39887 ft | 381 kts | 238° |
| 2026-05-03 21:13 | 37.10022 | -110.44689 | 39890 ft | 381 kts | 238° |
| 2026-05-03 21:13 | 37.06791 | -110.49997 | 39888 ft | 380 kts | 238° |
| 2026-05-03 21:14 | 37.03587 | -110.55254 | 39887 ft | 380 kts | 238° |
| 2026-05-03 21:14 | 37.00409 | -110.60458 | 39902 ft | 378 kts | 238° |
| 2026-05-03 21:15 | 36.97211 | -110.65688 | 39894 ft | 378 kts | 238° |
| 2026-05-03 21:15 | 36.94006 | -110.70922 | 39918 ft | 379 kts | 238° |
| 2026-05-03 21:16 | 36.90792 | -110.76159 | 39891 ft | 379 kts | 238° |
| 2026-05-03 21:16 | 36.87582 | -110.81385 | 39903 ft | 379 kts | 238° |
| 2026-05-03 21:17 | 36.84913 | -110.85723 | 39892 ft | 379 kts | 238° |
| 2026-05-03 21:17 | 36.81159 | -110.91816 | 39887 ft | 379 kts | 238° |
| 2026-05-03 21:18 | 36.77948 | -110.97018 | 39874 ft | 378 kts | 238° |
| 2026-05-03 21:18 | 36.74738 | -111.02212 | 39878 ft | 377 kts | 238° |
| 2026-05-03 21:19 | 36.71536 | -111.07383 | 39878 ft | 377 kts | 238° |
| 2026-05-03 21:19 | 36.68331 | -111.12552 | 39882 ft | 376 kts | 238° |
| 2026-05-03 21:20 | 36.65131 | -111.17705 | 39880 ft | 376 kts | 238° |
| 2026-05-03 21:20 | 36.61933 | -111.22848 | 39877 ft | 376 kts | 238° |
| 2026-05-03 21:21 | 36.58735 | -111.27983 | 39879 ft | 375 kts | 238° |
| 2026-05-03 21:21 | 36.55537 | -111.33111 | 39881 ft | 375 kts | 238° |
| 2026-05-03 21:22 | 36.52338 | -111.38234 | 39882 ft | 375 kts | 238° |
| 2026-05-03 21:22 | 36.49135 | -111.43353 | 39876 ft | 375 kts | 238° |
| 2026-05-03 21:23 | 36.46188 | -111.48631 | 39887 ft | 369 kts | 246° |
| 2026-05-03 21:23 | 36.44221 | -111.54411 | 39892 ft | 365 kts | 252° |
| 2026-05-03 21:24 | 36.42489 | -111.60337 | 39880 ft | 365 kts | 252° |
| 2026-05-03 21:24 | 36.40740 | -111.66300 | 39887 ft | 365 kts | 252° |
| 2026-05-03 21:25 | 36.39002 | -111.72184 | 39885 ft | 365 kts | 252° |
| 2026-05-03 21:25 | 36.37247 | -111.78097 | 39887 ft | 365 kts | 252° |
| 2026-05-03 21:26 | 36.35487 | -111.84009 | 39899 ft | 365 kts | 252° |
| 2026-05-03 21:26 | 36.34008 | -111.88963 | 39859 ft | 364 kts | 253° |
| 2026-05-03 21:27 | 36.32251 | -111.94841 | 39878 ft | 362 kts | 252° |
| 2026-05-03 21:27 | 36.30496 | -112.00703 | 39920 ft | 363 kts | 252° |
| 2026-05-03 21:28 | 36.28744 | -112.06545 | 39926 ft | 364 kts | 252° |
| 2026-05-03 21:28 | 36.26972 | -112.12437 | 39940 ft | 365 kts | 252° |
| 2026-05-03 21:29 | 36.25193 | -112.18341 | 39968 ft | 366 kts | 252° |
| 2026-05-03 21:29 | 36.23406 | -112.24255 | 39975 ft | 366 kts | 252° |
| 2026-05-03 21:30 | 36.21616 | -112.30175 | 39965 ft | 367 kts | 252° |
| 2026-05-03 21:30 | 36.19818 | -112.36097 | 39988 ft | 369 kts | 252° |
| 2026-05-03 21:31 | 36.18018 | -112.42030 | 39936 ft | 368 kts | 251° |
| 2026-05-03 21:31 | 36.16213 | -112.47949 | 39889 ft | 366 kts | 252° |
| 2026-05-03 21:32 | 36.14422 | -112.53816 | 39886 ft | 364 kts | 251° |
| 2026-05-03 21:32 | 36.12633 | -112.59665 | 39879 ft | 363 kts | 251° |
| 2026-05-03 21:33 | 36.10844 | -112.65507 | 39878 ft | 364 kts | 251° |
| 2026-05-03 21:33 | 36.09052 | -112.71339 | 39868 ft | 362 kts | 251° |
| 2026-05-03 21:34 | 36.07263 | -112.77155 | 39866 ft | 362 kts | 251° |
| 2026-05-03 21:34 | 36.05472 | -112.82963 | 39870 ft | 362 kts | 251° |
| 2026-05-03 21:35 | 36.03678 | -112.88771 | 39857 ft | 362 kts | 251° |
| 2026-05-03 21:35 | 36.01879 | -112.94584 | 39860 ft | 362 kts | 251° |
| 2026-05-03 21:36 | 36.00076 | -113.00397 | 39857 ft | 362 kts | 251° |
| 2026-05-03 21:36 | 35.98268 | -113.06214 | 39846 ft | 363 kts | 251° |
| 2026-05-03 21:37 | 35.96469 | -113.11992 | 39842 ft | 363 kts | 251° |
| 2026-05-03 21:37 | 35.94650 | -113.17821 | 39840 ft | 364 kts | 250° |
| 2026-05-03 21:38 | 35.92824 | -113.23660 | 39832 ft | 365 kts | 251° |
| 2026-05-03 21:38 | 35.90992 | -113.29510 | 39819 ft | 365 kts | 251° |
| 2026-05-03 21:39 | 35.89160 | -113.35347 | 39812 ft | 365 kts | 251° |
| 2026-05-03 21:39 | 35.87329 | -113.41176 | 39808 ft | 364 kts | 251° |
| 2026-05-03 21:40 | 35.85492 | -113.47000 | 39793 ft | 365 kts | 250° |
| 2026-05-03 21:40 | 35.83653 | -113.52824 | 39825 ft | 364 kts | 250° |
| 2026-05-03 21:41 | 35.81807 | -113.58655 | 39772 ft | 366 kts | 250° |
| 2026-05-03 21:41 | 35.79956 | -113.64497 | 39780 ft | 367 kts | 250° |
| 2026-05-03 21:42 | 35.78103 | -113.70333 | 39774 ft | 364 kts | 250° |
| 2026-05-03 21:42 | 35.76253 | -113.76142 | 39766 ft | 363 kts | 250° |
| 2026-05-03 21:43 | 35.74408 | -113.81930 | 39758 ft | 363 kts | 250° |
| 2026-05-03 21:43 | 35.72558 | -113.87722 | 39772 ft | 364 kts | 250° |
| 2026-05-03 21:44 | 35.70694 | -113.93548 | 39768 ft | 366 kts | 250° |
| 2026-05-03 21:44 | 35.68822 | -113.99383 | 39757 ft | 367 kts | 250° |
| 2026-05-03 21:45 | 35.66944 | -114.05228 | 39752 ft | 368 kts | 250° |
| 2026-05-03 21:45 | 35.65061 | -114.11077 | 39749 ft | 368 kts | 250° |
| 2026-05-03 21:46 | 35.63172 | -114.16932 | 39754 ft | 369 kts | 250° |
| 2026-05-03 21:46 | 35.61275 | -114.22802 | 39737 ft | 370 kts | 250° |
| 2026-05-03 21:47 | 35.59385 | -114.28637 | 39738 ft | 370 kts | 250° |
| 2026-05-03 21:47 | 35.57478 | -114.34515 | 39738 ft | 370 kts | 249° |
| 2026-05-03 21:48 | 35.55569 | -114.40387 | 39732 ft | 371 kts | 249° |
| 2026-05-03 21:48 | 35.53656 | -114.46259 | 39734 ft | 370 kts | 249° |
| 2026-05-03 21:49 | 35.51738 | -114.52135 | 39746 ft | 371 kts | 249° |
| 2026-05-03 21:49 | 35.49815 | -114.58016 | 39729 ft | 372 kts | 249° |
| 2026-05-03 21:50 | 35.47885 | -114.63906 | 39735 ft | 372 kts | 249° |
| 2026-05-03 21:50 | 35.45950 | -114.69800 | 39724 ft | 372 kts | 249° |
| 2026-05-03 21:51 | 35.44017 | -114.75677 | 39728 ft | 372 kts | 249° |
| 2026-05-03 21:51 | 35.42080 | -114.81554 | 39746 ft | 372 kts | 249° |
| 2026-05-03 21:52 | 35.40140 | -114.87432 | 39782 ft | 372 kts | 249° |
| 2026-05-03 21:52 | 35.38196 | -114.93308 | 39784 ft | 372 kts | 249° |
| 2026-05-03 21:53 | 35.36413 | -114.99258 | 39801 ft | 372 kts | 251° |
| 2026-05-03 21:53 | 35.34726 | -115.05242 | 39800 ft | 372 kts | 251° |
| 2026-05-03 21:54 | 35.33024 | -115.11227 | 39804 ft | 372 kts | 251° |
| 2026-05-03 21:54 | 35.31307 | -115.17191 | 39814 ft | 372 kts | 251° |
| 2026-05-03 21:55 | 35.29577 | -115.23166 | 39823 ft | 372 kts | 251° |
| 2026-05-03 21:55 | 35.27847 | -115.29125 | 39833 ft | 371 kts | 251° |
| 2026-05-03 21:56 | 35.26113 | -115.35082 | 39832 ft | 372 kts | 250° |
| 2026-05-03 21:56 | 35.24373 | -115.41048 | 39829 ft | 373 kts | 251° |
| 2026-05-03 21:57 | 35.22641 | -115.46977 | 39831 ft | 373 kts | 251° |
| 2026-05-03 21:57 | 35.20889 | -115.52961 | 39823 ft | 374 kts | 251° |
| 2026-05-03 21:58 | 35.19135 | -115.58940 | 39824 ft | 373 kts | 251° |
| 2026-05-03 21:58 | 35.17378 | -115.64915 | 39732 ft | 374 kts | 251° |
| 2026-05-03 21:59 | 35.16492 | -115.67925 | 39268 ft | 374 kts | 251° |
| 2026-05-03 21:59 | 35.15615 | -115.70899 | 38684 ft | 372 kts | 251° |
| 2026-05-03 21:59 | 35.14741 | -115.73865 | 37982 ft | 370 kts | 251° |
| 2026-05-03 21:59 | 35.13867 | -115.76822 | 37263 ft | 369 kts | 251° |
| 2026-05-03 22:00 | 35.12997 | -115.79763 | 36592 ft | 367 kts | 251° |
| 2026-05-03 22:00 | 35.11934 | -115.82595 | 35924 ft | 368 kts | 242° |
| 2026-05-03 22:00 | 35.10592 | -115.85256 | 35202 ft | 369 kts | 241° |
| 2026-05-03 22:00 | 35.09222 | -115.87912 | 34460 ft | 370 kts | 241° |
| 2026-05-03 22:01 | 35.07845 | -115.90576 | 33610 ft | 373 kts | 241° |
| 2026-05-03 22:01 | 35.06466 | -115.93259 | 32706 ft | 375 kts | 241° |
| 2026-05-03 22:01 | 35.05080 | -115.95968 | 31805 ft | 376 kts | 241° |
| 2026-05-03 22:01 | 35.03695 | -115.98683 | 30862 ft | 378 kts | 241° |
| 2026-05-03 22:02 | 35.02306 | -116.01407 | 29944 ft | 379 kts | 241° |
| 2026-05-03 22:02 | 35.00914 | -116.04142 | 28862 ft | 381 kts | 240° |
| 2026-05-03 22:02 | 34.99513 | -116.06892 | 27884 ft | 380 kts | 240° |
| 2026-05-03 22:02 | 34.98117 | -116.09630 | 27150 ft | 383 kts | 240° |
| 2026-05-03 22:03 | 34.96700 | -116.12410 | 26366 ft | 386 kts | 240° |
| 2026-05-03 22:03 | 34.95290 | -116.15170 | 25604 ft | 380 kts | 239° |
| 2026-05-03 22:03 | 34.93906 | -116.17878 | 24855 ft | 374 kts | 239° |
| 2026-05-03 22:03 | 34.92535 | -116.20556 | 24106 ft | 371 kts | 239° |
| 2026-05-03 22:04 | 34.91285 | -116.23257 | 23830 ft | 357 kts | 244° |
| 2026-05-03 22:04 | 34.90214 | -116.25969 | 23682 ft | 359 kts | 245° |
| 2026-05-03 22:04 | 34.89141 | -116.28786 | 23558 ft | 373 kts | 245° |
| 2026-05-03 22:04 | 34.88040 | -116.31684 | 23467 ft | 378 kts | 245° |
| 2026-05-03 22:05 | 34.86934 | -116.34577 | 23391 ft | 376 kts | 245° |
| 2026-05-03 22:05 | 34.85827 | -116.37454 | 23293 ft | 375 kts | 245° |
| 2026-05-03 22:05 | 34.84715 | -116.40324 | 23210 ft | 375 kts | 245° |
| 2026-05-03 22:05 | 34.83600 | -116.43195 | 23119 ft | 375 kts | 244° |
| 2026-05-03 22:06 | 34.82485 | -116.46060 | 23042 ft | 374 kts | 244° |
| 2026-05-03 22:06 | 34.81370 | -116.48923 | 22951 ft | 374 kts | 244° |
| 2026-05-03 22:06 | 34.80253 | -116.51787 | 22881 ft | 374 kts | 244° |
| 2026-05-03 22:06 | 34.79157 | -116.54659 | 22804 ft | 374 kts | 247° |
| 2026-05-03 22:07 | 34.78465 | -116.57719 | 22615 ft | 380 kts | 259° |
| 2026-05-03 22:07 | 34.78176 | -116.60925 | 22426 ft | 383 kts | 261° |
| 2026-05-03 22:07 | 34.77904 | -116.64159 | 22210 ft | 384 kts | 261° |
| 2026-05-03 22:07 | 34.77613 | -116.67353 | 22002 ft | 385 kts | 260° |
| 2026-05-03 22:08 | 34.77301 | -116.70625 | 21782 ft | 384 kts | 260° |
| 2026-05-03 22:08 | 34.76986 | -116.73847 | 21568 ft | 384 kts | 260° |
| 2026-05-03 22:08 | 34.76670 | -116.77068 | 21337 ft | 384 kts | 260° |
| 2026-05-03 22:08 | 34.76360 | -116.80245 | 21131 ft | 383 kts | 260° |
| 2026-05-03 22:09 | 34.76045 | -116.83460 | 20917 ft | 384 kts | 260° |
| 2026-05-03 22:09 | 34.75727 | -116.86692 | 20696 ft | 385 kts | 260° |
| 2026-05-03 22:09 | 34.75404 | -116.89919 | 20468 ft | 385 kts | 260° |
| 2026-05-03 22:10 | 34.74747 | -116.96403 | 20024 ft | 387 kts | 260° |
| 2026-05-03 22:10 | 34.74417 | -116.99649 | 19806 ft | 388 kts | 260° |
| 2026-05-03 22:10 | 34.74193 | -117.01854 | 19656 ft | 388 kts | 260° |
| 2026-05-03 22:10 | 34.73860 | -117.05114 | 19438 ft | 389 kts | 260° |
| 2026-05-03 22:11 | 34.73528 | -117.08374 | 19215 ft | 390 kts | 259° |
| 2026-05-03 22:11 | 34.73198 | -117.11603 | 19049 ft | 390 kts | 260° |
| 2026-05-03 22:11 | 34.72862 | -117.14879 | 18831 ft | 390 kts | 259° |
| 2026-05-03 22:11 | 34.72525 | -117.18148 | 18625 ft | 390 kts | 259° |
| 2026-05-03 22:12 | 34.72188 | -117.21420 | 18406 ft | 390 kts | 260° |
| 2026-05-03 22:12 | 34.71849 | -117.24696 | 18187 ft | 391 kts | 260° |
| 2026-05-03 22:12 | 34.71510 | -117.27974 | 17954 ft | 391 kts | 259° |
| 2026-05-03 22:12 | 34.71169 | -117.31249 | 17719 ft | 391 kts | 259° |
| 2026-05-03 22:13 | 34.70828 | -117.34526 | 17488 ft | 390 kts | 259° |
| 2026-05-03 22:13 | 34.70487 | -117.37795 | 17259 ft | 390 kts | 260° |
| 2026-05-03 22:13 | 34.70146 | -117.41055 | 17021 ft | 389 kts | 259° |
| 2026-05-03 22:13 | 34.69804 | -117.44311 | 16786 ft | 388 kts | 260° |
| 2026-05-03 22:14 | 34.69462 | -117.47559 | 16553 ft | 387 kts | 260° |
| 2026-05-03 22:14 | 34.69118 | -117.50798 | 16325 ft | 386 kts | 260° |
| 2026-05-03 22:14 | 34.68774 | -117.54030 | 16096 ft | 384 kts | 260° |
| 2026-05-03 22:14 | 34.68435 | -117.57220 | 15855 ft | 378 kts | 260° |
| 2026-05-03 22:15 | 34.68096 | -117.60392 | 15638 ft | 380 kts | 260° |
| 2026-05-03 22:15 | 34.67754 | -117.63588 | 15421 ft | 383 kts | 260° |
| 2026-05-03 22:15 | 34.67414 | -117.66787 | 15188 ft | 380 kts | 260° |
| 2026-05-03 22:15 | 34.67077 | -117.69971 | 14969 ft | 379 kts | 260° |
| 2026-05-03 22:16 | 34.66741 | -117.73143 | 14731 ft | 379 kts | 260° |
| 2026-05-03 22:16 | 34.66404 | -117.76315 | 14521 ft | 378 kts | 260° |
| 2026-05-03 22:16 | 34.66067 | -117.79481 | 14325 ft | 378 kts | 260° |
| 2026-05-03 22:16 | 34.65729 | -117.82640 | 14118 ft | 377 kts | 260° |
| 2026-05-03 22:17 | 34.65391 | -117.85799 | 13910 ft | 376 kts | 260° |
| 2026-05-03 22:17 | 34.65049 | -117.88960 | 13538 ft | 377 kts | 260° |
| 2026-05-03 22:17 | 34.64706 | -117.92103 | 13155 ft | 374 kts | 259° |
| 2026-05-03 22:17 | 34.64364 | -117.95223 | 12781 ft | 372 kts | 259° |
| 2026-05-03 22:18 | 34.64023 | -117.98341 | 12413 ft | 372 kts | 259° |
| 2026-05-03 22:18 | 34.63683 | -118.01445 | 12054 ft | 370 kts | 259° |
| 2026-05-03 22:18 | 34.63343 | -118.04532 | 11683 ft | 367 kts | 259° |
| 2026-05-03 22:18 | 34.62933 | -118.07531 | 11306 ft | 347 kts | 253° |
| 2026-05-03 22:19 | 34.62351 | -118.10264 | 10970 ft | 323 kts | 251° |
| 2026-05-03 22:19 | 34.61770 | -118.12810 | 10657 ft | 303 kts | 250° |
| 2026-05-03 22:19 | 34.61450 | -118.14202 | 10485 ft | 293 kts | 251° |
| 2026-05-03 22:20 | 34.60920 | -118.16519 | 10207 ft | 277 kts | 250° |
| 2026-05-03 22:20 | 34.60419 | -118.18722 | 9949 ft | 265 kts | 250° |
| 2026-05-03 22:20 | 34.59934 | -118.20865 | 9701 ft | 262 kts | 250° |
| 2026-05-03 22:20 | 34.59452 | -118.22999 | 9432 ft | 263 kts | 250° |
| 2026-05-03 22:21 | 34.58970 | -118.25140 | 9145 ft | 262 kts | 249° |
| 2026-05-03 22:21 | 34.58490 | -118.27282 | 8882 ft | 263 kts | 250° |
| 2026-05-03 22:21 | 34.58013 | -118.29415 | 8641 ft | 261 kts | 249° |
| 2026-05-03 22:21 | 34.57538 | -118.31537 | 8408 ft | 262 kts | 250° |
| 2026-05-03 22:22 | 34.57058 | -118.33679 | 8129 ft | 264 kts | 249° |
| 2026-05-03 22:22 | 34.56580 | -118.35814 | 7971 ft | 261 kts | 250° |
| 2026-05-03 22:22 | 34.56106 | -118.37935 | 7947 ft | 261 kts | 249° |
| 2026-05-03 22:22 | 34.55626 | -118.40072 | 7907 ft | 263 kts | 250° |
| 2026-05-03 22:23 | 34.55086 | -118.42179 | 7910 ft | 261 kts | 239° |
| 2026-05-03 22:23 | 34.54016 | -118.43914 | 7826 ft | 258 kts | 217° |
| 2026-05-03 22:23 | 34.52541 | -118.45148 | 7711 ft | 259 kts | 211° |
| 2026-05-03 22:23 | 34.51025 | -118.46338 | 7519 ft | 258 kts | 211° |
| 2026-05-03 22:24 | 34.49534 | -118.47511 | 7365 ft | 255 kts | 211° |
| 2026-05-03 22:24 | 34.48055 | -118.48677 | 7198 ft | 251 kts | 211° |
| 2026-05-03 22:24 | 34.46596 | -118.49813 | 7040 ft | 248 kts | 210° |
| 2026-05-03 22:24 | 34.45136 | -118.50943 | 6886 ft | 249 kts | 210° |
| 2026-05-03 22:25 | 34.43687 | -118.52064 | 6732 ft | 250 kts | 210° |
| 2026-05-03 22:25 | 34.42220 | -118.53200 | 6572 ft | 251 kts | 210° |
| 2026-05-03 22:25 | 34.40755 | -118.54336 | 6417 ft | 250 kts | 210° |
| 2026-05-03 22:25 | 34.39284 | -118.55476 | 6247 ft | 251 kts | 210° |
| 2026-05-03 22:26 | 34.37831 | -118.56601 | 6081 ft | 251 kts | 209° |
| 2026-05-03 22:26 | 34.36201 | -118.57353 | 5884 ft | 249 kts | 187° |
| 2026-05-03 22:26 | 34.34488 | -118.57424 | 5666 ft | 251 kts | 178° |
| 2026-05-03 22:26 | 34.32751 | -118.57345 | 5456 ft | 250 kts | 177° |
| 2026-05-03 22:27 | 34.31018 | -118.57261 | 5292 ft | 249 kts | 178° |
| 2026-05-03 22:27 | 34.29297 | -118.57184 | 4999 ft | 246 kts | 177° |
| 2026-05-03 22:27 | 34.27544 | -118.57059 | 4267 ft | 255 kts | 176° |
| 2026-05-03 22:27 | 34.25816 | -118.56915 | 4018 ft | 242 kts | 176° |
| 2026-05-03 22:28 | 34.24192 | -118.56778 | 3877 ft | 226 kts | 175° |
| 2026-05-03 22:28 | 34.22710 | -118.56427 | 3793 ft | 208 kts | 159° |
| 2026-05-03 22:28 | 34.21532 | -118.55555 | 3674 ft | 192 kts | 139° |
| 2026-05-03 22:28 | 34.20730 | -118.54361 | 3505 ft | 175 kts | 124° |
| 2026-05-03 22:29 | 34.20269 | -118.53094 | 3310 ft | 157 kts | 104° |
| 2026-05-03 22:29 | 34.20118 | -118.51861 | 3186 ft | 140 kts | 101° |
| 2026-05-03 22:29 | 34.20025 | -118.50687 | 2960 ft | 139 kts | 96° |
| 2026-05-03 22:29 | 34.19984 | -118.49537 | 2788 ft | 137 kts | 95° |
| 2026-05-03 22:30 | 34.19957 | -118.48381 | 2597 ft | 136 kts | 94° |
| 2026-05-03 22:30 | 34.19938 | -118.47227 | 2431 ft | 138 kts | 95° |
| 2026-05-03 22:30 | 34.19920 | -118.46061 | 2247 ft | 139 kts | 95° |
| 2026-05-03 22:30 | 34.19904 | -118.44906 | 2049 ft | 136 kts | 94° |
| 2026-05-03 22:31 | 34.19879 | -118.43776 | 1851 ft | 134 kts | 95° |
| 2026-05-03 22:31 | 34.19865 | -118.42643 | 1682 ft | 136 kts | 95° |
| 2026-05-03 22:31 | 34.19883 | -118.41508 | 1513 ft | 135 kts | 93° |
| 2026-05-03 22:31 | 34.19831 | -118.40375 | 1336 ft | 135 kts | 96° |
| 2026-05-03 22:32 | 34.19810 | -118.39223 | 1178 ft | 138 kts | 92° |
| 2026-05-03 22:32 | 34.19808 | -118.38057 | 994 ft | 140 kts | 96° |
| 2026-05-03 22:32 | 34.19795 | -118.36892 | 769 ft | 135 kts | 92° |
| 2026-05-03 22:32 | 34.19778 | -118.35845 | 697 ft | 112 kts | 90° |
| 2026-05-03 22:33 | 34.19767 | -118.35182 | 695 ft | 35 kts | 91° |
| 2026-05-03 22:33 | 34.19836 | -118.35079 | 695 ft | 0 kts | 1° |
| 2026-05-03 22:35 | 34.19838 | -118.35078 | 695 ft | 1 kts | 16° |
| 2026-05-03 22:35 | 34.19836 | -118.35069 | 694 ft | 1 kts | 117° |
| 2026-05-03 22:35 | 34.19823 | -118.35069 | 693 ft | 6 kts | 186° |
| 2026-05-03 22:36 | 34.19764 | -118.35139 | 694 ft | 16 kts | 248° |
| 2026-05-03 22:36 | 34.19733 | -118.35232 | 690 ft | 8 kts | 215° |
| 2026-05-03 22:36 | 34.19691 | -118.35240 | 692 ft | 3 kts | 181° |
| 2026-05-03 22:36 | 34.19678 | -118.35241 | 691 ft | 0 kts | 181° |
| 2026-05-03 22:37 | 34.19676 | -118.35241 | 691 ft | 0 kts | 181° |